Time;durP1;ratioP1;P1;durP2;ratioP2;P2;SDS_P1;SDS_P2;PMS_P1;PMS_P2;Temp;Humidity;BMP_temperature;BMP_pressure;BME280_temperature;BME280_humidity;BME280_pressure;Samples;Min_cycle;Max_cycle;Signal;HPM_P1;HPM_P2
2022/03/02 00:00:58;;;;;;;;;;;-0.30;99.90;;;;;;5057010;28;20403;-87
2022/03/02 00:03:23;;;;;;;;;;;-0.30;99.90;;;;;;5053223;28;20377;-88
2022/03/02 00:05:49;;;;;;;;;;;-0.30;99.80;;;;;;5055959;28;19923;-86
2022/03/02 00:08:14;;;;;;;;;;;-0.20;99.50;;;;;;5042464;28;19920;-86
2022/03/02 00:10:39;;;;;;;;;;;-0.20;98.80;;;;;;5039385;28;19917;-87
2022/03/02 00:13:05;;;;;;;;;;;-0.20;98.00;;;;;;5055846;28;19913;-86
2022/03/02 00:15:31;;;;;;;;;;;-0.10;96.80;;;;;;5055582;28;20020;-87
2022/03/02 00:17:56;;;;;;;;;;;-0.10;96.30;;;;;;5038218;28;20557;-87
2022/03/02 00:20:22;;;;;;;;;;;-0.10;95.80;;;;;;5023390;28;19913;-86
2022/03/02 00:22:47;;;;;;;;;;;0.00;95.20;;;;;;5057037;28;19916;-87
2022/03/02 00:25:13;;;;;;;;;;;0.00;94.80;;;;;;5051876;28;19923;-86
2022/03/02 00:27:38;;;;;;;;;;;0.10;94.60;;;;;;5039238;28;19913;-87
2022/03/02 00:30:08;;;;;;;;;;;0.10;94.20;;;;;;5022069;28;19919;-87
2022/03/02 00:32:33;;;;;;;;;;;0.20;94.10;;;;;;5049037;28;19974;-87
2022/03/02 00:34:59;;;;;;;;;;;0.20;94.20;;;;;;5053797;28;20100;-86
2022/03/02 00:37:24;;;;;;;;;;;0.20;94.50;;;;;;5022098;28;20012;-86
2022/03/02 00:39:53;;;;;;;;;;;0.20;94.60;;;;;;5036633;28;19952;-87
2022/03/02 00:42:18;;;;;;;;;;;0.20;94.70;;;;;;5030026;28;20428;-86
2022/03/02 00:44:44;;;;;;;;;;;0.20;95.00;;;;;;5019893;28;19955;-86
2022/03/02 00:47:09;;;;;;;;;;;0.10;95.40;;;;;;5015766;28;19917;-86
2022/03/02 00:49:35;;;;;;;;;;;0.10;95.90;;;;;;5027306;28;19991;-86
2022/03/02 00:52:02;;;;;;;;;;;0.00;95.80;;;;;;5055801;28;19931;-86
2022/03/02 00:54:28;;;;;;;;;;;0.00;95.80;;;;;;5055933;28;19999;-86
2022/03/02 00:56:53;;;;;;;;;;;-0.10;97.00;;;;;;5038993;28;20684;-86
2022/03/02 00:59:19;;;;;;;;;;;-0.20;99.90;;;;;;5019665;28;19913;-86
2022/03/02 01:01:44;;;;;;;;;;;-0.30;99.90;;;;;;5041924;28;19928;-86
2022/03/02 01:04:10;;;;;;;;;;;-0.40;99.90;;;;;;5025250;28;19916;-86
2022/03/02 01:06:35;;;;;;;;;;;-0.40;99.90;;;;;;5042780;28;19998;-86
2022/03/02 01:09:02;;;;;;;;;;;-0.50;99.90;;;;;;5035640;28;19908;-86
2022/03/02 01:11:28;;;;;;;;;;;-0.50;99.90;;;;;;5053491;28;19919;-86
2022/03/02 01:13:53;;;;;;;;;;;-0.60;99.90;;;;;;5018657;28;20039;-86
2022/03/02 01:16:19;;;;;;;;;;;-0.60;99.90;;;;;;5038244;28;19915;-87
2022/03/02 01:18:47;;;;;;;;;;;-0.60;99.90;;;;;;5054597;28;19966;-86
2022/03/02 01:21:13;;;;;;;;;;;-0.60;99.90;;;;;;5015292;28;19918;-87
2022/03/02 01:23:39;;;;;;;;;;;-0.60;99.90;;;;;;5015905;28;19923;-86
2022/03/02 01:26:04;;;;;;;;;;;-0.60;99.90;;;;;;5054725;28;19912;-86
2022/03/02 01:28:30;;;;;;;;;;;-0.60;99.90;;;;;;5051164;28;19928;-87
2022/03/02 01:30:55;;;;;;;;;;;-0.60;99.90;;;;;;5038677;28;19913;-86
2022/03/02 01:33:21;;;;;;;;;;;-0.60;99.90;;;;;;5034906;28;19958;-86
2022/03/02 01:35:47;;;;;;;;;;;-0.60;99.90;;;;;;5041337;28;20007;-86
2022/03/02 01:38:12;;;;;;;;;;;-0.60;99.50;;;;;;5054118;28;19919;-86
2022/03/02 01:40:38;;;;;;;;;;;-0.70;99.90;;;;;;5054809;28;19915;-86
2022/03/02 01:43:03;;;;;;;;;;;-0.70;99.70;;;;;;5072255;28;19912;-86
2022/03/02 01:45:29;;;;;;;;;;;-0.80;99.90;;;;;;5025941;28;20017;-86
2022/03/02 01:47:58;;;;;;;;;;;-0.80;99.90;;;;;;5051970;28;19997;-86
2022/03/02 01:50:23;;;;;;;;;;;-0.80;99.90;;;;;;5034587;28;19971;-86
2022/03/02 01:52:48;;;;;;;;;;;-0.90;99.90;;;;;;5052299;28;19913;-86
2022/03/02 01:55:14;;;;;;;;;;;-0.90;99.90;;;;;;5040740;28;19978;-86
2022/03/02 01:57:41;;;;;;;;;;;-1.00;99.90;;;;;;5053951;28;19952;-86
2022/03/02 02:00:07;;;;;;;;;;;-1.00;99.90;;;;;;5054410;28;19999;-86
2022/03/02 02:02:33;;;;;;;;;;;-1.00;99.90;;;;;;5054077;28;19920;-86
2022/03/02 02:04:58;;;;;;;;;;;-1.00;99.90;;;;;;5028486;28;19917;-86
2022/03/02 02:07:25;;;;;;;;;;;-1.10;99.90;;;;;;5030952;28;19921;-86
2022/03/02 02:09:52;;;;;;;;;;;-1.10;99.90;;;;;;5066305;28;19999;-86
2022/03/02 02:12:18;;;;;;;;;;;-1.10;99.90;;;;;;5053756;28;19915;-86
2022/03/02 02:14:44;;;;;;;;;;;-1.20;99.90;;;;;;5037722;28;19927;-86
2022/03/02 02:17:10;;;;;;;;;;;-1.20;99.90;;;;;;5053702;28;20364;-86
2022/03/02 02:19:35;;;;;;;;;;;-1.20;99.90;;;;;;5037757;28;19924;-86
2022/03/02 02:22:01;;;;;;;;;;;-1.20;99.90;;;;;;5037682;28;20007;-87
2022/03/02 02:24:26;;;;;;;;;;;-1.20;99.90;;;;;;5054162;28;19933;-86
2022/03/02 02:26:52;;;;;;;;;;;-1.30;99.90;;;;;;5054120;28;19920;-85
2022/03/02 02:29:18;;;;;;;;;;;-1.30;99.90;;;;;;5054633;28;20384;-86
2022/03/02 02:31:44;;;;;;;;;;;-1.30;99.90;;;;;;5053594;28;19920;-86
2022/03/02 02:34:10;;;;;;;;;;;-1.30;99.90;;;;;;5081361;28;19947;-88
2022/03/02 02:36:36;;;;;;;;;;;-1.30;99.90;;;;;;5070263;28;20349;-88
2022/03/02 02:39:02;;;;;;;;;;;-1.30;99.90;;;;;;5055724;28;19924;-87
2022/03/02 02:41:27;;;;;;;;;;;-1.30;99.90;;;;;;5060868;28;19917;-87
2022/03/02 02:43:53;;;;;;;;;;;-1.30;99.90;;;;;;5056044;28;19956;-87
2022/03/02 02:46:19;;;;;;;;;;;-1.30;99.90;;;;;;5064364;28;19909;-87
2022/03/02 02:48:44;;;;;;;;;;;-1.20;99.90;;;;;;5038221;28;19917;-87
2022/03/02 02:51:10;;;;;;;;;;;-1.20;99.90;;;;;;5024491;28;19996;-88
2022/03/02 02:53:35;;;;;;;;;;;-1.20;99.90;;;;;;5048464;28;19921;-87
2022/03/02 02:56:01;;;;;;;;;;;-1.30;99.90;;;;;;5061436;28;19921;-88
2022/03/02 02:58:27;;;;;;;;;;;-1.30;99.90;;;;;;5043310;28;19924;-86
2022/03/02 03:00:52;;;;;;;;;;;-1.40;99.90;;;;;;5043393;28;19924;-87
2022/03/02 03:03:19;;;;;;;;;;;-1.40;99.90;;;;;;5065529;28;19919;-87
2022/03/02 03:05:45;;;;;;;;;;;-1.40;99.90;;;;;;5042557;28;19917;-87
2022/03/02 03:08:12;;;;;;;;;;;-1.50;99.90;;;;;;5048710;28;20442;-86
2022/03/02 03:10:39;;;;;;;;;;;-1.50;99.90;;;;;;5062150;28;20061;-87
2022/03/02 03:13:05;;;;;;;;;;;-1.60;99.90;;;;;;5044759;28;20015;-87
2022/03/02 03:15:31;;;;;;;;;;;-1.60;99.90;;;;;;5041495;28;19975;-87
2022/03/02 03:17:56;;;;;;;;;;;-1.60;99.90;;;;;;5046052;28;19927;-88
2022/03/02 03:20:25;;;;;;;;;;;-1.60;99.90;;;;;;5060980;28;19940;-86
2022/03/02 03:22:50;;;;;;;;;;;-1.60;99.90;;;;;;5061176;28;19913;-88
2022/03/02 03:25:16;;;;;;;;;;;-1.50;99.90;;;;;;5072356;28;19913;-87
2022/03/02 03:27:42;;;;;;;;;;;-1.50;99.90;;;;;;5051884;28;19920;-85
2022/03/02 03:30:08;;;;;;;;;;;-1.50;99.90;;;;;;5042781;28;19922;-87
2022/03/02 03:32:34;;;;;;;;;;;-1.50;99.90;;;;;;5060822;28;19975;-86
2022/03/02 03:35:00;;;;;;;;;;;-1.50;99.90;;;;;;5070723;28;19909;-86
2022/03/02 03:37:29;;;;;;;;;;;-1.50;99.90;;;;;;5054838;28;19917;-86
2022/03/02 03:39:55;;;;;;;;;;;-1.60;99.90;;;;;;5043610;28;19959;-86
2022/03/02 03:42:20;;;;;;;;;;;-1.50;99.90;;;;;;5026433;28;19912;-86
2022/03/02 03:44:46;;;;;;;;;;;-1.50;99.90;;;;;;5044463;28;19920;-86
2022/03/02 03:47:11;;;;;;;;;;;-1.60;99.90;;;;;;5055198;28;19931;-87
2022/03/02 03:49:37;;;;;;;;;;;-1.60;99.90;;;;;;5051767;28;20284;-87
2022/03/02 03:52:03;;;;;;;;;;;-1.60;99.90;;;;;;5038696;28;19949;-86
2022/03/02 03:54:28;;;;;;;;;;;-1.70;99.90;;;;;;5037031;28;19983;-85
2022/03/02 03:56:54;;;;;;;;;;;-1.70;99.90;;;;;;5054008;28;19916;-85
2022/03/02 03:59:19;;;;;;;;;;;-1.80;99.90;;;;;;5020564;28;19974;-85
2022/03/02 04:01:44;;;;;;;;;;;-1.80;99.90;;;;;;5038283;28;20015;-86
2022/03/02 04:04:10;;;;;;;;;;;-1.80;99.90;;;;;;5042061;28;19920;-86
2022/03/02 04:06:35;;;;;;;;;;;-1.80;99.90;;;;;;5035861;28;19928;-86
2022/03/02 04:09:02;;;;;;;;;;;-1.80;99.90;;;;;;5036247;28;20549;-85
2022/03/02 04:11:28;;;;;;;;;;;-1.80;99.90;;;;;;5037058;28;20367;-85
2022/03/02 04:13:54;;;;;;;;;;;-1.80;99.90;;;;;;5088594;22;19912;-80
2022/03/02 04:16:20;;;;;;;;;;;-1.80;99.90;;;;;;5074405;28;19969;-81
2022/03/02 04:18:46;;;;;;;;;;;-1.80;99.90;;;;;;5058058;28;19932;-80
2022/03/02 04:21:12;;;;;;;;;;;-1.70;99.90;;;;;;5074599;28;19920;-80
2022/03/02 04:23:37;;;;;;;;;;;-1.70;99.90;;;;;;5057004;28;20528;-81
2022/03/02 04:26:03;;;;;;;;;;;-1.70;99.90;;;;;;5071163;28;20667;-81
2022/03/02 04:28:29;;;;;;;;;;;-1.70;99.90;;;;;;5090734;28;19925;-81
2022/03/02 04:30:54;;;;;;;;;;;-1.70;99.90;;;;;;5075702;28;20366;-80
2022/03/02 04:33:20;;;;;;;;;;;-1.70;99.90;;;;;;5074518;28;19999;-81
2022/03/02 04:35:46;;;;;;;;;;;-1.70;99.90;;;;;;5057105;28;19920;-80
2022/03/02 04:38:11;;;;;;;;;;;-1.60;99.90;;;;;;5057536;28;20376;-82
2022/03/02 04:40:37;;;;;;;;;;;-1.60;99.90;;;;;;5053214;28;19956;-81
2022/03/02 04:43:02;;;;;;;;;;;-1.70;99.90;;;;;;5063841;28;19924;-81
2022/03/02 04:45:28;;;;;;;;;;;-1.70;99.90;;;;;;5067995;28;20287;-81
2022/03/02 04:47:55;;;;;;;;;;;-1.70;99.90;;;;;;5073107;28;19952;-81
2022/03/02 04:50:21;;;;;;;;;;;-1.70;99.90;;;;;;5073234;28;20367;-81
2022/03/02 04:52:47;;;;;;;;;;;-1.70;99.90;;;;;;5085768;28;19912;-81
2022/03/02 04:55:13;;;;;;;;;;;-1.60;99.90;;;;;;5093078;28;19912;-81
2022/03/02 04:57:41;;;;;;;;;;;-1.60;99.90;;;;;;5092851;28;19912;-81
2022/03/02 05:00:09;;;;;;;;;;;-1.60;99.90;;;;;;5093197;28;19957;-81
2022/03/02 05:02:35;;;;;;;;;;;-1.60;99.90;;;;;;5088027;28;20200;-81
2022/03/02 05:05:00;;;;;;;;;;;-1.50;99.90;;;;;;5059854;28;20405;-81
2022/03/02 05:07:26;;;;;;;;;;;-1.50;99.90;;;;;;5070667;28;20347;-81
2022/03/02 05:09:52;;;;;;;;;;;-1.50;99.90;;;;;;5055999;28;19920;-81
2022/03/02 05:12:18;;;;;;;;;;;-1.50;99.90;;;;;;5056453;28;20267;-81
2022/03/02 05:14:43;;;;;;;;;;;-1.40;99.90;;;;;;5072438;28;19916;-81
2022/03/02 05:17:09;;;;;;;;;;;-1.40;99.90;;;;;;5072641;28;20322;-81
2022/03/02 05:19:34;;;;;;;;;;;-1.30;99.90;;;;;;5056234;28;19917;-81
2022/03/02 05:22:00;;;;;;;;;;;-1.30;99.90;;;;;;5069440;28;19912;-81
2022/03/02 05:24:25;;;;;;;;;;;-1.20;99.90;;;;;;5072610;28;20302;-81
2022/03/02 05:26:51;;;;;;;;;;;-1.20;99.90;;;;;;5055282;28;19936;-81
2022/03/02 05:29:16;;;;;;;;;;;-1.20;99.90;;;;;;5072091;28;19917;-81
2022/03/02 05:31:42;;;;;;;;;;;-1.20;99.90;;;;;;5063132;28;19959;-81
2022/03/02 05:34:07;;;;;;;;;;;-1.20;99.90;;;;;;5055426;28;19917;-81
2022/03/02 05:36:33;;;;;;;;;;;-1.20;99.90;;;;;;5074794;28;19916;-81
2022/03/02 05:38:59;;;;;;;;;;;-1.20;99.90;;;;;;5075032;28;20022;-81
2022/03/02 05:41:24;;;;;;;;;;;-1.20;99.90;;;;;;5075489;28;19954;-81
2022/03/02 05:43:50;;;;;;;;;;;-1.20;99.90;;;;;;5059272;28;19916;-81
2022/03/02 05:46:15;;;;;;;;;;;-1.20;99.90;;;;;;5081456;28;19908;-81
2022/03/02 05:48:41;;;;;;;;;;;-1.20;99.90;;;;;;5081116;28;20597;-81
2022/03/02 05:51:06;;;;;;;;;;;-1.20;99.90;;;;;;5058729;28;19916;-81
2022/03/02 05:53:32;;;;;;;;;;;-1.10;99.90;;;;;;5092506;28;19912;-81
2022/03/02 05:55:57;;;;;;;;;;;-1.10;99.90;;;;;;5091737;28;19912;-80
2022/03/02 05:58:25;;;;;;;;;;;-1.10;99.90;;;;;;5074179;28;20386;-81
2022/03/02 06:00:51;;;;;;;;;;;-1.10;99.90;;;;;;5091373;28;20312;-81
2022/03/02 06:03:17;;;;;;;;;;;-1.10;99.90;;;;;;5074558;28;19921;-83
2022/03/02 06:05:42;;;;;;;;;;;-1.10;99.90;;;;;;5074611;28;19985;-81
2022/03/02 06:08:09;;;;;;;;;;;-1.10;99.90;;;;;;5090963;28;20006;-81
2022/03/02 06:10:35;;;;;;;;;;;-1.10;99.90;;;;;;5082009;28;19912;-81
2022/03/02 06:13:01;;;;;;;;;;;-1.10;99.90;;;;;;5091449;28;20014;-81
2022/03/02 06:15:27;;;;;;;;;;;-1.10;99.90;;;;;;5089944;28;19920;-80
2022/03/02 06:17:52;;;;;;;;;;;-1.10;99.90;;;;;;5074741;28;19916;-81
2022/03/02 06:20:18;;;;;;;;;;;-1.10;99.90;;;;;;5073187;28;20305;-81
2022/03/02 06:22:44;;;;;;;;;;;-1.10;99.90;;;;;;5074547;28;19916;-81
2022/03/02 06:25:10;;;;;;;;;;;-1.10;99.90;;;;;;5067483;28;19970;-82
2022/03/02 06:27:36;;;;;;;;;;;-1.00;99.90;;;;;;5054517;28;19913;-81
2022/03/02 06:30:03;;;;;;;;;;;-1.00;99.90;;;;;;5074157;28;19977;-81
2022/03/02 06:32:29;;;;;;;;;;;-1.00;99.90;;;;;;5083624;28;19958;-81
2022/03/02 06:34:55;;;;;;;;;;;-0.90;99.90;;;;;;5072883;28;19952;-81
2022/03/02 06:37:21;;;;;;;;;;;-1.00;99.90;;;;;;5074027;28;19955;-81
2022/03/02 06:39:46;;;;;;;;;;;-0.90;99.90;;;;;;5074189;28;19913;-81
2022/03/02 06:42:12;;;;;;;;;;;-0.90;99.90;;;;;;5054664;28;19977;-81
2022/03/02 06:44:53;;;;;;;;;;;-0.80;99.90;;;;;;5080333;28;20015;-82
2022/03/02 06:47:20;;;;;;;;;;;-0.80;99.90;;;;;;5070313;28;19954;-81
2022/03/02 06:50:01;;;;;;;;;;;-0.70;99.90;;;;;;5055748;28;20390;-81
2022/03/02 06:52:27;;;;;;;;;;;-0.60;99.90;;;;;;5053979;28;19923;-82
2022/03/02 06:54:54;;;;;;;;;;;-0.50;99.90;;;;;;5054179;28;19917;-82
2022/03/02 06:57:25;;;;;;;;;;;-0.50;99.90;;;;;;5070177;28;19913;-82
2022/03/02 06:59:52;;;;;;;;;;;-0.40;99.90;;;;;;5072192;28;20268;-82
2022/03/02 07:02:26;;;;;;;;;;;-0.30;99.90;;;;;;5053651;28;19912;-81
2022/03/02 07:04:52;;;;;;;;;;;-0.30;99.90;;;;;;5071680;28;20355;-81
2022/03/02 07:07:18;;;;;;;;;;;-0.20;99.90;;;;;;5057224;28;19924;-81
2022/03/02 07:09:44;;;;;;;;;;;-0.10;99.90;;;;;;5086126;28;19912;-82
2022/03/02 07:12:10;;;;;;;;;;;0.00;99.90;;;;;;5073819;28;19916;-81
2022/03/02 07:14:38;;;;;;;;;;;0.10;99.90;;;;;;5070656;28;19917;-81
2022/03/02 07:17:05;;;;;;;;;;;0.10;99.90;;;;;;5056460;28;20417;-82
2022/03/02 07:19:30;;;;;;;;;;;0.20;99.90;;;;;;5087151;28;19916;-82
2022/03/02 07:21:56;;;;;;;;;;;0.30;99.90;;;;;;5056561;28;19916;-82
2022/03/02 07:24:22;;;;;;;;;;;0.40;99.90;;;;;;5072999;28;20298;-82
2022/03/02 07:26:52;;;;;;;;;;;0.50;99.90;;;;;;5074710;28;19918;-84
2022/03/02 07:29:18;;;;;;;;;;;0.60;99.90;;;;;;5073646;28;20379;-84
2022/03/02 07:31:45;;;;;;;;;;;0.70;99.90;;;;;;5071943;28;19912;-83
2022/03/02 07:34:12;;;;;;;;;;;0.80;99.90;;;;;;5053646;28;20101;-82
2022/03/02 07:36:41;;;;;;;;;;;0.90;99.90;;;;;;5074738;28;19912;-82
2022/03/02 07:39:08;;;;;;;;;;;1.00;99.90;;;;;;5079860;28;19920;-83
2022/03/02 07:41:34;;;;;;;;;;;1.00;99.90;;;;;;5068454;28;19923;-82
2022/03/02 07:44:03;;;;;;;;;;;1.10;99.90;;;;;;5077864;28;19920;-83
2022/03/02 07:46:29;;;;;;;;;;;1.10;99.90;;;;;;5071614;28;19995;-83
2022/03/02 07:48:55;;;;;;;;;;;1.20;99.90;;;;;;5078091;28;20003;-83
2022/03/02 07:51:21;;;;;;;;;;;1.20;99.90;;;;;;5078370;28;20370;-83
2022/03/02 07:53:48;;;;;;;;;;;1.20;99.90;;;;;;5074717;28;19924;-83
2022/03/02 07:56:14;;;;;;;;;;;1.30;99.90;;;;;;5080119;28;20395;-83
2022/03/02 07:58:40;;;;;;;;;;;1.40;99.90;;;;;;5068239;28;19974;-83
2022/03/02 08:01:12;;;;;;;;;;;1.40;99.90;;;;;;5089462;28;20010;-83
2022/03/02 08:03:41;;;;;;;;;;;1.50;99.90;;;;;;5070370;28;20034;-83
2022/03/02 08:06:06;;;;;;;;;;;1.50;99.90;;;;;;5052696;28;19917;-83
2022/03/02 08:08:32;;;;;;;;;;;1.60;99.90;;;;;;5069196;28;20290;-83
2022/03/02 08:10:58;;;;;;;;;;;1.60;99.40;;;;;;5079018;28;19912;-83
2022/03/02 08:13:23;;;;;;;;;;;1.70;98.70;;;;;;5072296;28;20278;-83
2022/03/02 08:15:49;;;;;;;;;;;1.70;96.50;;;;;;5072583;28;20467;-83
2022/03/02 08:18:18;;;;;;;;;;;1.80;95.00;;;;;;5055642;28;19917;-83
2022/03/02 08:20:47;;;;;;;;;;;1.80;94.50;;;;;;5056817;28;20003;-83
2022/03/02 08:23:12;;;;;;;;;;;2.00;94.70;;;;;;5073774;28;19998;-83
2022/03/02 08:25:38;;;;;;;;;;;2.00;94.60;;;;;;5090402;28;20007;-83
2022/03/02 08:28:06;;;;;;;;;;;2.10;94.60;;;;;;5074637;28;20278;-83
2022/03/02 08:30:33;;;;;;;;;;;2.20;94.60;;;;;;5092468;28;19912;-83
2022/03/02 08:33:00;;;;;;;;;;;2.30;93.40;;;;;;5074549;28;19917;-83
2022/03/02 08:35:25;;;;;;;;;;;2.30;93.40;;;;;;5089135;28;19916;-83
2022/03/02 08:37:51;;;;;;;;;;;2.50;92.20;;;;;;5076741;28;20302;-83
2022/03/02 08:40:16;;;;;;;;;;;2.60;91.90;;;;;;5066167;28;19931;-83
2022/03/02 08:42:44;;;;;;;;;;;2.60;90.90;;;;;;5090255;28;19961;-83
2022/03/02 08:45:09;;;;;;;;;;;2.80;91.20;;;;;;5066500;28;19967;-83
2022/03/02 08:47:35;;;;;;;;;;;2.80;90.30;;;;;;5071977;28;19962;-83
2022/03/02 08:50:01;;;;;;;;;;;2.90;89.20;;;;;;5055473;28;19921;-83
2022/03/02 08:52:28;;;;;;;;;;;3.00;87.90;;;;;;5056936;28;19957;-83
2022/03/02 08:54:55;;;;;;;;;;;3.00;88.10;;;;;;5079121;28;19912;-83
2022/03/02 08:57:21;;;;;;;;;;;3.10;87.50;;;;;;5091902;28;20058;-83
2022/03/02 08:59:50;;;;;;;;;;;3.20;84.80;;;;;;5086926;28;19999;-83
2022/03/02 09:02:18;;;;;;;;;;;3.30;83.30;;;;;;5074641;28;19920;-83
2022/03/02 09:04:44;;;;;;;;;;;3.40;82.70;;;;;;5054674;28;19931;-83
2022/03/02 09:07:09;;;;;;;;;;;3.50;82.00;;;;;;5071237;28;19916;-83
2022/03/02 09:09:35;;;;;;;;;;;3.70;80.70;;;;;;5054870;28;19912;-83
2022/03/02 09:12:02;;;;;;;;;;;3.80;80.50;;;;;;5054605;28;19916;-82
2022/03/02 09:14:28;;;;;;;;;;;3.90;80.20;;;;;;5054573;28;19924;-83
2022/03/02 09:16:54;;;;;;;;;;;3.90;79.60;;;;;;5071055;28;19916;-83
2022/03/02 09:19:19;;;;;;;;;;;4.00;78.20;;;;;;5054320;28;20342;-83
2022/03/02 09:21:45;;;;;;;;;;;4.00;76.70;;;;;;5054175;28;19923;-84
2022/03/02 09:24:11;;;;;;;;;;;4.10;75.50;;;;;;5070944;28;19912;-83
2022/03/02 09:26:38;;;;;;;;;;;4.10;72.90;;;;;;5071106;28;20019;-83
2022/03/02 09:29:05;;;;;;;;;;;4.10;74.40;;;;;;5071291;28;19909;-82
2022/03/02 09:31:32;;;;;;;;;;;4.20;73.40;;;;;;5071432;28;19915;-83
2022/03/02 09:33:58;;;;;;;;;;;4.20;71.30;;;;;;5071167;28;19909;-82
2022/03/02 09:36:25;;;;;;;;;;;4.30;71.80;;;;;;5071072;28;19965;-83
2022/03/02 09:38:52;;;;;;;;;;;4.40;72.30;;;;;;5054337;28;19963;-83
2022/03/02 09:41:28;;;;;;;;;;;4.50;71.30;;;;;;5055426;28;20582;-83
2022/03/02 09:43:55;;;;;;;;;;;4.70;71.80;;;;;;5071559;28;19912;-83
2022/03/02 09:46:27;;;;;;;;;;;4.90;71.70;;;;;;5064192;28;20346;-83
2022/03/02 09:48:57;;;;;;;;;;;5.00;68.50;;;;;;5091095;28;19915;-83
2022/03/02 09:51:23;;;;;;;;;;;5.10;67.20;;;;;;5088648;28;20007;-83
2022/03/02 09:53:52;;;;;;;;;;;5.10;65.30;;;;;;5073514;28;19916;-83
2022/03/02 09:56:19;;;;;;;;;;;5.20;64.90;;;;;;5069785;28;19923;-83
2022/03/02 09:58:49;;;;;;;;;;;5.30;65.20;;;;;;5074700;28;19916;-83
2022/03/02 10:01:15;;;;;;;;;;;5.40;66.10;;;;;;5070655;28;19909;-83
2022/03/02 10:03:44;;;;;;;;;;;5.40;64.70;;;;;;5073170;28;20348;-83
2022/03/02 10:06:11;;;;;;;;;;;5.50;63.30;;;;;;5090853;28;19912;-83
2022/03/02 10:08:45;;;;;;;;;;;5.50;62.50;;;;;;5058719;28;19912;-83
2022/03/02 10:11:13;;;;;;;;;;;5.50;63.40;;;;;;5070570;28;19958;-82
2022/03/02 10:13:39;;;;;;;;;;;5.50;61.90;;;;;;5070095;28;19909;-83
2022/03/02 10:16:08;;;;;;;;;;;5.50;61.50;;;;;;5053395;28;19924;-82
2022/03/02 10:18:34;;;;;;;;;;;5.60;60.70;;;;;;5064800;22;19924;-87
2022/03/02 10:21:00;;;;;;;;;;;5.70;59.60;;;;;;5012780;28;19931;-87
2022/03/02 10:23:32;;;;;;;;;;;5.80;60.00;;;;;;5030965;28;19948;-88
2022/03/02 10:26:15;;;;;;;;;;;5.90;60.20;;;;;;5051141;28;20372;-87
2022/03/02 10:29:00;;;;;;;;;;;6.00;60.10;;;;;;5050478;28;19919;-87
2022/03/02 10:31:27;;;;;;;;;;;6.10;59.10;;;;;;5032818;28;20012;-87
2022/03/02 10:34:05;;;;;;;;;;;6.30;59.20;;;;;;5034847;28;19924;-87
2022/03/02 10:36:32;;;;;;;;;;;6.40;57.90;;;;;;5052655;28;19916;-88
2022/03/02 10:38:58;;;;;;;;;;;6.60;57.80;;;;;;5070297;28;19916;-87
2022/03/02 10:41:27;;;;;;;;;;;6.60;59.20;;;;;;5052673;28;19908;-88
2022/03/02 10:44:01;;;;;;;;;;;6.70;58.40;;;;;;5052403;28;19913;-87
2022/03/02 10:46:27;;;;;;;;;;;6.80;57.80;;;;;;5052993;28;19916;-88
2022/03/02 10:49:07;;;;;;;;;;;6.80;57.60;;;;;;5052095;28;20277;-88
2022/03/02 10:51:34;;;;;;;;;;;6.90;57.60;;;;;;5052338;28;19916;-88
2022/03/02 10:54:04;;;;;;;;;;;6.80;57.70;;;;;;5052194;28;19912;-87
2022/03/02 10:56:35;;;;;;;;;;;6.70;58.90;;;;;;5070255;28;20003;-87
2022/03/02 10:59:01;;;;;;;;;;;6.80;60.30;;;;;;5052137;28;19973;-87
2022/03/02 11:01:27;;;;;;;;;;;6.80;58.90;;;;;;5033649;28;19916;-87
2022/03/02 11:03:54;;;;;;;;;;;7.00;58.70;;;;;;5035714;28;20299;-87
2022/03/02 11:06:20;;;;;;;;;;;7.10;57.60;;;;;;5070210;28;20403;-88
2022/03/02 11:08:47;;;;;;;;;;;7.20;56.90;;;;;;5051755;28;20332;-88
2022/03/02 11:11:12;;;;;;;;;;;7.30;56.80;;;;;;5035668;28;19916;-88
2022/03/02 11:13:40;;;;;;;;;;;7.30;56.80;;;;;;5069786;28;20288;-87
2022/03/02 11:16:06;;;;;;;;;;;7.40;57.20;;;;;;5052511;28;20406;-88
2022/03/02 11:18:31;;;;;;;;;;;7.50;57.70;;;;;;5051713;28;19917;-87
2022/03/02 11:20:58;;;;;;;;;;;7.50;56.50;;;;;;5052407;28;19958;-87
2022/03/02 11:23:24;;;;;;;;;;;7.50;56.80;;;;;;5035406;28;19958;-88
2022/03/02 11:25:51;;;;;;;;;;;7.60;56.10;;;;;;5051954;28;19916;-87
2022/03/02 11:28:21;;;;;;;;;;;7.60;56.10;;;;;;5034798;28;19952;-87
2022/03/02 11:30:52;;;;;;;;;;;7.70;55.50;;;;;;5052096;28;19908;-87
2022/03/02 11:33:28;;;;;;;;;;;7.80;55.00;;;;;;5052071;28;19982;-87
2022/03/02 11:35:59;;;;;;;;;;;7.90;54.50;;;;;;5051628;28;20364;-88
2022/03/02 11:38:27;;;;;;;;;;;8.00;54.00;;;;;;5050559;28;20043;-88
2022/03/02 11:40:53;;;;;;;;;;;8.10;53.90;;;;;;5035536;28;19951;-88
2022/03/02 11:43:20;;;;;;;;;;;8.20;53.70;;;;;;5051796;28;19976;-87
2022/03/02 11:45:45;;;;;;;;;;;8.30;53.90;;;;;;5053395;28;19909;-88
2022/03/02 11:48:15;;;;;;;;;;;8.30;53.60;;;;;;5035594;28;19917;-88
2022/03/02 11:51:21;;;;;;;;;;;8.30;53.40;;;;;;5061604;28;19912;-87
2022/03/02 11:53:50;;;;;;;;;;;8.30;53.40;;;;;;4994377;28;20366;-87
2022/03/02 11:56:17;;;;;;;;;;;8.30;53.50;;;;;;4995063;28;20364;-87
2022/03/02 11:58:59;;;;;;;;;;;8.20;53.10;;;;;;5025006;28;19956;-87
2022/03/02 12:01:26;;;;;;;;;;;8.10;52.80;;;;;;5048056;28;19923;-87
2022/03/02 12:03:55;;;;;;;;;;;8.00;53.50;;;;;;5072930;28;20273;-88
2022/03/02 12:06:21;;;;;;;;;;;7.90;53.80;;;;;;5055014;28;19962;-87
2022/03/02 12:08:50;;;;;;;;;;;7.90;53.40;;;;;;5037756;28;19920;-88
2022/03/02 12:11:20;;;;;;;;;;;8.00;53.90;;;;;;5055389;28;19912;-87
2022/03/02 12:14:04;;;;;;;;;;;8.00;53.10;;;;;;5073546;28;20489;-87
2022/03/02 12:16:52;;;;;;;;;;;8.20;53.20;;;;;;5055265;28;19908;-87
2022/03/02 12:19:25;;;;;;;;;;;8.20;52.80;;;;;;5055402;28;19928;-88
2022/03/02 12:21:54;;;;;;;;;;;8.30;52.90;;;;;;5038461;28;19912;-87
2022/03/02 12:24:25;;;;;;;;;;;8.40;52.80;;;;;;5054979;28;19916;-88
2022/03/02 12:26:50;;;;;;;;;;;8.40;52.50;;;;;;5054479;28;20334;-87
2022/03/02 12:29:16;;;;;;;;;;;8.40;52.20;;;;;;5054832;28;19916;-88
2022/03/02 12:31:46;;;;;;;;;;;8.50;52.60;;;;;;5054732;28;20290;-88
2022/03/02 12:34:15;;;;;;;;;;;8.50;52.20;;;;;;5055437;28;19923;-87
2022/03/02 12:36:42;;;;;;;;;;;8.60;52.10;;;;;;5054081;28;20011;-88
2022/03/02 12:39:07;;;;;;;;;;;8.60;53.20;;;;;;5037665;28;19959;-88
2022/03/02 12:41:33;;;;;;;;;;;8.70;52.80;;;;;;5072414;28;19959;-87
2022/03/02 12:43:59;;;;;;;;;;;8.80;52.10;;;;;;5054602;28;19912;-88
2022/03/02 12:46:26;;;;;;;;;;;8.90;52.10;;;;;;5033026;28;19913;-87
2022/03/02 12:48:53;;;;;;;;;;;8.90;52.80;;;;;;5024897;28;20277;-88
2022/03/02 12:51:18;;;;;;;;;;;9.00;52.90;;;;;;5038039;28;19946;-87
2022/03/02 12:53:44;;;;;;;;;;;9.10;52.00;;;;;;5037580;28;19934;-88
2022/03/02 12:56:10;;;;;;;;;;;9.10;52.00;;;;;;5054034;28;19966;-88
2022/03/02 12:58:37;;;;;;;;;;;9.20;52.30;;;;;;5037189;28;19932;-88
2022/03/02 13:01:02;;;;;;;;;;;9.30;52.50;;;;;;5071865;28;19912;-87
2022/03/02 13:03:30;;;;;;;;;;;9.30;50.50;;;;;;5037700;28;19923;-87
2022/03/02 13:06:00;;;;;;;;;;;9.30;51.30;;;;;;5053896;28;19920;-88
2022/03/02 13:08:43;;;;;;;;;;;9.30;50.90;;;;;;5053402;28;19913;-87
2022/03/02 13:11:28;;;;;;;;;;;9.20;49.90;;;;;;5037294;28;20395;-88
2022/03/02 13:13:54;;;;;;;;;;;9.10;49.20;;;;;;5037330;28;19923;-88
2022/03/02 13:16:20;;;;;;;;;;;8.90;48.40;;;;;;5037233;28;19917;-88
2022/03/02 13:18:47;;;;;;;;;;;8.80;50.10;;;;;;5053103;28;19916;-87
2022/03/02 13:21:14;;;;;;;;;;;8.80;50.20;;;;;;5052883;28;19958;-88
2022/03/02 13:23:59;;;;;;;;;;;8.80;50.10;;;;;;5053829;28;19916;-87
2022/03/02 13:26:24;;;;;;;;;;;8.70;50.30;;;;;;5037040;28;19939;-87
2022/03/02 13:29:05;;;;;;;;;;;8.60;51.20;;;;;;5013732;28;19909;-87
2022/03/02 13:31:49;;;;;;;;;;;8.50;51.40;;;;;;5013954;28;19963;-87
2022/03/02 13:34:16;;;;;;;;;;;8.40;52.20;;;;;;5014376;28;19909;-88
2022/03/02 13:36:54;;;;;;;;;;;8.40;52.40;;;;;;5031750;28;19924;-88
2022/03/02 13:39:44;;;;;;;;;;;8.30;51.80;;;;;;5013954;28;19917;-87
2022/03/02 13:42:20;;;;;;;;;;;8.30;50.90;;;;;;5008496;28;19955;-87
2022/03/02 13:44:46;;;;;;;;;;;8.20;51.00;;;;;;5014087;28;19999;-87
2022/03/02 13:47:15;;;;;;;;;;;8.10;51.60;;;;;;5013425;28;20008;-88
2022/03/02 13:52:12;;;;;;;;;;;8.00;53.40;;;;;;5031187;28;19916;-88
2022/03/02 13:54:38;;;;;;;;;;;8.00;52.70;;;;;;4997554;28;20219;-88
2022/03/02 13:57:03;;;;;;;;;;;7.90;52.50;;;;;;5013432;28;19963;-87
2022/03/02 13:59:29;;;;;;;;;;;7.80;55.20;;;;;;4997537;28;20381;-87
2022/03/02 14:01:54;;;;;;;;;;;7.80;55.20;;;;;;5013673;28;19915;-87
2022/03/02 14:04:21;;;;;;;;;;;7.60;56.60;;;;;;4997261;28;20007;-87
2022/03/02 14:07:04;;;;;;;;;;;7.40;57.10;;;;;;5012949;28;19916;-88
2022/03/02 14:09:30;;;;;;;;;;;7.10;58.30;;;;;;5012830;28;19913;-87
2022/03/02 14:11:56;;;;;;;;;;;6.90;59.60;;;;;;5013209;28;19986;-87
2022/03/02 14:14:27;;;;;;;;;;;6.70;61.00;;;;;;4997019;28;19939;-88
2022/03/02 14:16:54;;;;;;;;;;;6.60;61.60;;;;;;5012805;28;19909;-87
2022/03/02 14:19:20;;;;;;;;;;;6.40;62.80;;;;;;5013040;28;19929;-87
2022/03/02 14:21:51;;;;;;;;;;;6.30;64.50;;;;;;4996790;28;19913;-88
2022/03/02 14:24:17;;;;;;;;;;;6.10;66.50;;;;;;5012999;28;19913;-87
2022/03/02 14:27:02;;;;;;;;;;;5.90;67.70;;;;;;5012790;28;20277;-87